sensor_id;sensor_type;location;lat;lon;timestamp;P1;durP1;ratioP1;P2;durP2;ratioP2
45206;SDS011;30950;53.086;21.576;2022-11-15T00:01:51;31.45;;;23.30;;
45206;SDS011;30950;53.086;21.576;2022-11-15T00:04:37;31.33;;;22.13;;
45206;SDS011;30950;53.086;21.576;2022-11-15T00:07:22;26.90;;;20.40;;
45206;SDS011;30950;53.086;21.576;2022-11-15T00:10:28;29.48;;;21.85;;
45206;SDS011;30950;53.086;21.576;2022-11-15T00:13:14;29.55;;;21.63;;
45206;SDS011;30950;53.086;21.576;2022-11-15T00:16:01;29.15;;;22.52;;
45206;SDS011;30950;53.086;21.576;2022-11-15T00:18:47;30.58;;;22.63;;
45206;SDS011;30950;53.086;21.576;2022-11-15T00:21:35;29.05;;;20.02;;
45206;SDS011;30950;53.086;21.576;2022-11-15T00:24:21;29.33;;;22.63;;
45206;SDS011;30950;53.086;21.576;2022-11-15T00:27:07;29.90;;;20.88;;
45206;SDS011;30950;53.086;21.576;2022-11-15T00:29:53;35.15;;;23.70;;
45206;SDS011;30950;53.086;21.576;2022-11-15T00:32:38;29.15;;;21.75;;
45206;SDS011;30950;53.086;21.576;2022-11-15T00:35:24;31.63;;;22.85;;
45206;SDS011;30950;53.086;21.576;2022-11-15T00:38:10;34.80;;;24.30;;
45206;SDS011;30950;53.086;21.576;2022-11-15T00:40:55;31.95;;;24.30;;
45206;SDS011;30950;53.086;21.576;2022-11-15T00:43:41;31.98;;;23.77;;
45206;SDS011;30950;53.086;21.576;2022-11-15T00:46:29;34.88;;;25.02;;
45206;SDS011;30950;53.086;21.576;2022-11-15T00:49:14;33.40;;;23.85;;
45206;SDS011;30950;53.086;21.576;2022-11-15T00:52:00;33.88;;;23.85;;
45206;SDS011;30950;53.086;21.576;2022-11-15T00:54:46;33.40;;;24.75;;
45206;SDS011;30950;53.086;21.576;2022-11-15T00:57:32;33.13;;;24.05;;
45206;SDS011;30950;53.086;21.576;2022-11-15T01:00:18;34.20;;;25.02;;
45206;SDS011;30950;53.086;21.576;2022-11-15T01:03:04;36.60;;;25.23;;
45206;SDS011;30950;53.086;21.576;2022-11-15T01:05:50;31.65;;;22.30;;
45206;SDS011;30950;53.086;21.576;2022-11-15T01:08:36;35.88;;;23.98;;
45206;SDS011;30950;53.086;21.576;2022-11-15T01:11:22;35.58;;;24.25;;
45206;SDS011;30950;53.086;21.576;2022-11-15T01:14:08;34.92;;;23.42;;
45206;SDS011;30950;53.086;21.576;2022-11-15T01:16:54;33.40;;;23.50;;
45206;SDS011;30950;53.086;21.576;2022-11-15T01:19:40;40.65;;;23.27;;
45206;SDS011;30950;53.086;21.576;2022-11-15T01:22:26;40.55;;;24.92;;
45206;SDS011;30950;53.086;21.576;2022-11-15T01:25:12;33.60;;;22.92;;
45206;SDS011;30950;53.086;21.576;2022-11-15T01:27:58;39.10;;;25.00;;
45206;SDS011;30950;53.086;21.576;2022-11-15T01:30:44;33.20;;;23.48;;
45206;SDS011;30950;53.086;21.576;2022-11-15T01:33:30;31.88;;;22.13;;
45206;SDS011;30950;53.086;21.576;2022-11-15T01:36:19;35.58;;;24.27;;
45206;SDS011;30950;53.086;21.576;2022-11-15T01:39:09;35.80;;;23.23;;
45206;SDS011;30950;53.086;21.576;2022-11-15T01:41:54;35.05;;;23.17;;
45206;SDS011;30950;53.086;21.576;2022-11-15T01:44:44;35.33;;;22.67;;
45206;SDS011;30950;53.086;21.576;2022-11-15T01:47:35;35.47;;;24.17;;
45206;SDS011;30950;53.086;21.576;2022-11-15T01:50:26;34.40;;;23.42;;
45206;SDS011;30950;53.086;21.576;2022-11-15T01:53:17;37.70;;;23.23;;
45206;SDS011;30950;53.086;21.576;2022-11-15T01:56:06;34.90;;;22.30;;
45206;SDS011;30950;53.086;21.576;2022-11-15T01:58:55;35.13;;;24.35;;
45206;SDS011;30950;53.086;21.576;2022-11-15T02:01:43;35.40;;;21.92;;
45206;SDS011;30950;53.086;21.576;2022-11-15T02:04:31;36.42;;;22.23;;
45206;SDS011;30950;53.086;21.576;2022-11-15T02:07:19;33.80;;;22.48;;
45206;SDS011;30950;53.086;21.576;2022-11-15T02:10:14;37.20;;;23.25;;
45206;SDS011;30950;53.086;21.576;2022-11-15T02:13:03;32.88;;;21.10;;
45206;SDS011;30950;53.086;21.576;2022-11-15T02:22:28;34.83;;;22.25;;
45206;SDS011;30950;53.086;21.576;2022-11-15T02:37:59;33.10;;;21.20;;
45206;SDS011;30950;53.086;21.576;2022-11-15T02:43:29;29.38;;;19.30;;
45206;SDS011;30950;53.086;21.576;2022-11-15T02:46:41;28.00;;;18.02;;
45206;SDS011;30950;53.086;21.576;2022-11-15T02:49:59;30.55;;;17.30;;
45206;SDS011;30950;53.086;21.576;2022-11-15T02:52:54;28.33;;;17.90;;
45206;SDS011;30950;53.086;21.576;2022-11-15T02:55:41;30.92;;;19.65;;
45206;SDS011;30950;53.086;21.576;2022-11-15T03:01:56;27.65;;;17.48;;
45206;SDS011;30950;53.086;21.576;2022-11-15T03:17:00;29.30;;;18.85;;
45206;SDS011;30950;53.086;21.576;2022-11-15T03:20:11;26.83;;;16.50;;
45206;SDS011;30950;53.086;21.576;2022-11-15T03:23:03;26.98;;;18.15;;
45206;SDS011;30950;53.086;21.576;2022-11-15T03:25:52;25.20;;;17.10;;
45206;SDS011;30950;53.086;21.576;2022-11-15T03:28:44;29.00;;;17.67;;
45206;SDS011;30950;53.086;21.576;2022-11-15T03:31:36;29.02;;;16.88;;
45206;SDS011;30950;53.086;21.576;2022-11-15T03:34:40;28.13;;;18.75;;
45206;SDS011;30950;53.086;21.576;2022-11-15T03:41:07;31.60;;;18.17;;
45206;SDS011;30950;53.086;21.576;2022-11-15T03:44:04;27.25;;;17.55;;
45206;SDS011;30950;53.086;21.576;2022-11-15T03:50:13;29.75;;;18.15;;
45206;SDS011;30950;53.086;21.576;2022-11-15T03:53:04;29.77;;;18.92;;
45206;SDS011;30950;53.086;21.576;2022-11-15T03:55:50;30.38;;;18.92;;
45206;SDS011;30950;53.086;21.576;2022-11-15T03:58:36;31.15;;;19.52;;
45206;SDS011;30950;53.086;21.576;2022-11-15T04:01:22;33.45;;;20.67;;
45206;SDS011;30950;53.086;21.576;2022-11-15T04:04:08;32.55;;;20.55;;
45206;SDS011;30950;53.086;21.576;2022-11-15T04:06:54;34.40;;;23.15;;
45206;SDS011;30950;53.086;21.576;2022-11-15T04:09:40;34.95;;;21.02;;
45206;SDS011;30950;53.086;21.576;2022-11-15T04:12:45;38.45;;;23.73;;
45206;SDS011;30950;53.086;21.576;2022-11-15T04:15:33;35.95;;;23.45;;
45206;SDS011;30950;53.086;21.576;2022-11-15T04:18:18;33.53;;;21.83;;
45206;SDS011;30950;53.086;21.576;2022-11-15T04:21:05;37.13;;;23.80;;
45206;SDS011;30950;53.086;21.576;2022-11-15T04:24:09;35.75;;;22.58;;
45206;SDS011;30950;53.086;21.576;2022-11-15T04:26:58;39.55;;;23.98;;
45206;SDS011;30950;53.086;21.576;2022-11-15T04:29:44;37.53;;;24.33;;
45206;SDS011;30950;53.086;21.576;2022-11-15T04:32:30;42.50;;;26.90;;
45206;SDS011;30950;53.086;21.576;2022-11-15T04:35:16;40.42;;;27.60;;
45206;SDS011;30950;53.086;21.576;2022-11-15T04:38:03;42.15;;;25.42;;
45206;SDS011;30950;53.086;21.576;2022-11-15T04:40:50;43.35;;;29.55;;
45206;SDS011;30950;53.086;21.576;2022-11-15T04:43:36;50.95;;;29.10;;
45206;SDS011;30950;53.086;21.576;2022-11-15T04:46:22;40.67;;;25.67;;
45206;SDS011;30950;53.086;21.576;2022-11-15T04:49:09;43.00;;;29.00;;
45206;SDS011;30950;53.086;21.576;2022-11-15T04:51:54;46.22;;;27.90;;
45206;SDS011;30950;53.086;21.576;2022-11-15T04:54:40;44.90;;;27.90;;
45206;SDS011;30950;53.086;21.576;2022-11-15T04:57:27;46.38;;;28.30;;
45206;SDS011;30950;53.086;21.576;2022-11-15T05:00:14;48.92;;;30.17;;
45206;SDS011;30950;53.086;21.576;2022-11-15T05:03:01;44.65;;;27.95;;
45206;SDS011;30950;53.086;21.576;2022-11-15T05:06:06;46.58;;;28.10;;
45206;SDS011;30950;53.086;21.576;2022-11-15T05:08:51;44.97;;;28.83;;
45206;SDS011;30950;53.086;21.576;2022-11-15T05:11:38;33.10;;;22.02;;
45206;SDS011;30950;53.086;21.576;2022-11-15T05:14:23;47.95;;;27.90;;
45206;SDS011;30950;53.086;21.576;2022-11-15T05:17:09;45.17;;;29.13;;
45206;SDS011;30950;53.086;21.576;2022-11-15T05:19:55;44.83;;;28.58;;
45206;SDS011;30950;53.086;21.576;2022-11-15T05:22:41;43.08;;;28.05;;
45206;SDS011;30950;53.086;21.576;2022-11-15T05:25:27;48.40;;;28.48;;
45206;SDS011;30950;53.086;21.576;2022-11-15T05:28:13;45.97;;;30.10;;
45206;SDS011;30950;53.086;21.576;2022-11-15T05:31:06;49.03;;;29.58;;
45206;SDS011;30950;53.086;21.576;2022-11-15T05:33:54;49.70;;;28.67;;
45206;SDS011;30950;53.086;21.576;2022-11-15T05:36:42;47.97;;;27.75;;
45206;SDS011;30950;53.086;21.576;2022-11-15T05:39:30;45.13;;;26.77;;
45206;SDS011;30950;53.086;21.576;2022-11-15T05:42:15;45.97;;;28.80;;
45206;SDS011;30950;53.086;21.576;2022-11-15T05:45:02;39.50;;;26.35;;
45206;SDS011;30950;53.086;21.576;2022-11-15T05:47:50;48.70;;;28.20;;
45206;SDS011;30950;53.086;21.576;2022-11-15T05:50:38;49.00;;;29.08;;
45206;SDS011;30950;53.086;21.576;2022-11-15T05:53:27;46.97;;;28.60;;
45206;SDS011;30950;53.086;21.576;2022-11-15T05:59:00;45.95;;;27.83;;
45206;SDS011;30950;53.086;21.576;2022-11-15T06:01:48;48.00;;;30.05;;
45206;SDS011;30950;53.086;21.576;2022-11-15T06:04:34;45.75;;;27.15;;
45206;SDS011;30950;53.086;21.576;2022-11-15T06:07:20;47.35;;;29.02;;
45206;SDS011;30950;53.086;21.576;2022-11-15T06:10:07;48.00;;;28.95;;
45206;SDS011;30950;53.086;21.576;2022-11-15T06:12:57;45.20;;;27.48;;
45206;SDS011;30950;53.086;21.576;2022-11-15T06:15:43;47.38;;;28.17;;
45206;SDS011;30950;53.086;21.576;2022-11-15T06:18:31;60.67;;;38.17;;
45206;SDS011;30950;53.086;21.576;2022-11-15T06:21:18;45.53;;;26.98;;
45206;SDS011;30950;53.086;21.576;2022-11-15T06:24:05;47.38;;;28.15;;
45206;SDS011;30950;53.086;21.576;2022-11-15T06:26:51;61.47;;;37.13;;
45206;SDS011;30950;53.086;21.576;2022-11-15T06:29:38;36.43;;;22.97;;
45206;SDS011;30950;53.086;21.576;2022-11-15T06:32:23;52.33;;;30.58;;
45206;SDS011;30950;53.086;21.576;2022-11-15T06:35:09;47.22;;;27.15;;
45206;SDS011;30950;53.086;21.576;2022-11-15T06:37:55;79.40;;;45.78;;
45206;SDS011;30950;53.086;21.576;2022-11-15T06:40:46;46.63;;;27.35;;
45206;SDS011;30950;53.086;21.576;2022-11-15T06:43:32;54.05;;;35.38;;
45206;SDS011;30950;53.086;21.576;2022-11-15T06:46:19;46.60;;;25.00;;
45206;SDS011;30950;53.086;21.576;2022-11-15T06:49:05;44.13;;;25.02;;
45206;SDS011;30950;53.086;21.576;2022-11-15T06:51:54;67.13;;;39.47;;
45206;SDS011;30950;53.086;21.576;2022-11-15T06:54:40;59.38;;;37.47;;
45206;SDS011;30950;53.086;21.576;2022-11-15T06:57:25;53.88;;;30.13;;
45206;SDS011;30950;53.086;21.576;2022-11-15T07:00:11;50.83;;;27.25;;
45206;SDS011;30950;53.086;21.576;2022-11-15T07:03:01;49.13;;;26.77;;
45206;SDS011;30950;53.086;21.576;2022-11-15T07:05:51;49.85;;;26.38;;
45206;SDS011;30950;53.086;21.576;2022-11-15T07:08:41;53.90;;;33.95;;
45206;SDS011;30950;53.086;21.576;2022-11-15T07:11:27;45.53;;;26.65;;
45206;SDS011;30950;53.086;21.576;2022-11-15T07:14:13;48.03;;;28.88;;
45206;SDS011;30950;53.086;21.576;2022-11-15T07:16:59;48.72;;;27.05;;
45206;SDS011;30950;53.086;21.576;2022-11-15T07:19:45;48.08;;;31.25;;
45206;SDS011;30950;53.086;21.576;2022-11-15T07:22:30;52.55;;;29.98;;
45206;SDS011;30950;53.086;21.576;2022-11-15T07:25:16;50.88;;;30.77;;
45206;SDS011;30950;53.086;21.576;2022-11-15T07:28:02;58.13;;;31.73;;
45206;SDS011;30950;53.086;21.576;2022-11-15T07:30:49;58.55;;;35.20;;
45206;SDS011;30950;53.086;21.576;2022-11-15T07:33:35;54.20;;;30.15;;
45206;SDS011;30950;53.086;21.576;2022-11-15T07:36:21;52.23;;;28.67;;
45206;SDS011;30950;53.086;21.576;2022-11-15T07:39:07;59.33;;;35.45;;
45206;SDS011;30950;53.086;21.576;2022-11-15T07:41:54;58.23;;;31.70;;
45206;SDS011;30950;53.086;21.576;2022-11-15T07:44:59;56.67;;;31.52;;
45206;SDS011;30950;53.086;21.576;2022-11-15T07:47:49;67.28;;;37.17;;
45206;SDS011;30950;53.086;21.576;2022-11-15T07:50:35;58.00;;;32.40;;
45206;SDS011;30950;53.086;21.576;2022-11-15T07:53:21;61.53;;;35.60;;
45206;SDS011;30950;53.086;21.576;2022-11-15T07:56:07;60.67;;;35.42;;
45206;SDS011;30950;53.086;21.576;2022-11-15T07:58:53;62.88;;;35.88;;
45206;SDS011;30950;53.086;21.576;2022-11-15T08:01:39;61.13;;;37.85;;
45206;SDS011;30950;53.086;21.576;2022-11-15T08:04:25;67.30;;;34.93;;
45206;SDS011;30950;53.086;21.576;2022-11-15T08:07:11;64.00;;;36.50;;
45206;SDS011;30950;53.086;21.576;2022-11-15T08:09:58;59.95;;;34.65;;
45206;SDS011;30950;53.086;21.576;2022-11-15T08:12:46;60.83;;;35.30;;
45206;SDS011;30950;53.086;21.576;2022-11-15T08:15:32;65.57;;;38.85;;
45206;SDS011;30950;53.086;21.576;2022-11-15T08:18:19;65.70;;;35.67;;
45206;SDS011;30950;53.086;21.576;2022-11-15T08:21:04;89.55;;;52.70;;
45206;SDS011;30950;53.086;21.576;2022-11-15T08:23:50;70.53;;;39.05;;
45206;SDS011;30950;53.086;21.576;2022-11-15T08:26:37;56.73;;;36.10;;
45206;SDS011;30950;53.086;21.576;2022-11-15T08:29:23;61.13;;;34.58;;
45206;SDS011;30950;53.086;21.576;2022-11-15T08:32:09;69.13;;;39.55;;
45206;SDS011;30950;53.086;21.576;2022-11-15T08:34:56;74.30;;;44.70;;
45206;SDS011;30950;53.086;21.576;2022-11-15T08:37:41;63.10;;;34.45;;
45206;SDS011;30950;53.086;21.576;2022-11-15T08:40:27;59.38;;;33.83;;
45206;SDS011;30950;53.086;21.576;2022-11-15T08:43:13;70.55;;;38.60;;
45206;SDS011;30950;53.086;21.576;2022-11-15T08:45:59;53.42;;;29.95;;
45206;SDS011;30950;53.086;21.576;2022-11-15T08:48:45;67.43;;;36.70;;
45206;SDS011;30950;53.086;21.576;2022-11-15T08:51:31;55.30;;;29.55;;
45206;SDS011;30950;53.086;21.576;2022-11-15T08:54:17;109.35;;;60.72;;
45206;SDS011;30950;53.086;21.576;2022-11-15T08:57:03;56.60;;;32.45;;
45206;SDS011;30950;53.086;21.576;2022-11-15T08:59:48;62.00;;;33.97;;
45206;SDS011;30950;53.086;21.576;2022-11-15T09:02:34;87.95;;;48.47;;
45206;SDS011;30950;53.086;21.576;2022-11-15T09:05:23;66.80;;;35.05;;
45206;SDS011;30950;53.086;21.576;2022-11-15T09:08:09;75.88;;;39.60;;
45206;SDS011;30950;53.086;21.576;2022-11-15T09:11:16;74.65;;;39.03;;
45206;SDS011;30950;53.086;21.576;2022-11-15T09:14:05;83.53;;;48.08;;
45206;SDS011;30950;53.086;21.576;2022-11-15T09:16:51;100.80;;;63.13;;
45206;SDS011;30950;53.086;21.576;2022-11-15T09:19:37;56.70;;;32.28;;
45206;SDS011;30950;53.086;21.576;2022-11-15T09:22:24;88.57;;;47.75;;
45206;SDS011;30950;53.086;21.576;2022-11-15T09:25:09;69.45;;;37.90;;
45206;SDS011;30950;53.086;21.576;2022-11-15T09:27:55;119.32;;;89.03;;
45206;SDS011;30950;53.086;21.576;2022-11-15T09:30:42;74.75;;;47.33;;
45206;SDS011;30950;53.086;21.576;2022-11-15T09:33:28;67.07;;;34.83;;
45206;SDS011;30950;53.086;21.576;2022-11-15T09:36:15;70.25;;;39.47;;
45206;SDS011;30950;53.086;21.576;2022-11-15T09:39:02;75.63;;;44.55;;
45206;SDS011;30950;53.086;21.576;2022-11-15T09:41:50;58.00;;;30.73;;
45206;SDS011;30950;53.086;21.576;2022-11-15T09:51:08;68.15;;;33.60;;
45206;SDS011;30950;53.086;21.576;2022-11-15T09:53:49;62.13;;;32.10;;
45206;SDS011;30950;53.086;21.576;2022-11-15T09:56:41;64.70;;;32.20;;
45206;SDS011;30950;53.086;21.576;2022-11-15T09:59:34;64.95;;;31.02;;
45206;SDS011;30950;53.086;21.576;2022-11-15T10:04:57;61.35;;;32.13;;
45206;SDS011;30950;53.086;21.576;2022-11-15T10:10:02;67.43;;;33.83;;
45206;SDS011;30950;53.086;21.576;2022-11-15T10:12:34;64.97;;;33.95;;
45206;SDS011;30950;53.086;21.576;2022-11-15T10:15:03;69.05;;;35.75;;
45206;SDS011;30950;53.086;21.576;2022-11-15T10:23:11;64.45;;;31.95;;
45206;SDS011;30950;53.086;21.576;2022-11-15T10:25:40;70.40;;;33.33;;
45206;SDS011;30950;53.086;21.576;2022-11-15T10:28:13;60.78;;;28.90;;
45206;SDS011;30950;53.086;21.576;2022-11-15T10:30:50;61.75;;;31.70;;
45206;SDS011;30950;53.086;21.576;2022-11-15T10:41:19;61.75;;;29.75;;
45206;SDS011;30950;53.086;21.576;2022-11-15T10:46:38;66.40;;;30.45;;
45206;SDS011;30950;53.086;21.576;2022-11-15T10:49:23;58.67;;;28.20;;
45206;SDS011;30950;53.086;21.576;2022-11-15T10:54:40;58.08;;;28.77;;
45206;SDS011;30950;53.086;21.576;2022-11-15T10:57:12;63.13;;;32.50;;
45206;SDS011;30950;53.086;21.576;2022-11-15T10:59:44;62.95;;;31.02;;
45206;SDS011;30950;53.086;21.576;2022-11-15T11:02:37;64.88;;;31.27;;
45206;SDS011;30950;53.086;21.576;2022-11-15T11:05:20;60.85;;;28.85;;
45206;SDS011;30950;53.086;21.576;2022-11-15T11:10:54;59.45;;;29.45;;
45206;SDS011;30950;53.086;21.576;2022-11-15T11:13:29;65.50;;;31.73;;
45206;SDS011;30950;53.086;21.576;2022-11-15T11:16:33;56.75;;;28.67;;
45206;SDS011;30950;53.086;21.576;2022-11-15T11:27:18;54.70;;;26.70;;
45206;SDS011;30950;53.086;21.576;2022-11-15T11:30:21;47.38;;;25.30;;
45206;SDS011;30950;53.086;21.576;2022-11-15T11:35:47;58.35;;;28.02;;
45206;SDS011;30950;53.086;21.576;2022-11-15T11:46:49;58.00;;;28.60;;
45206;SDS011;30950;53.086;21.576;2022-11-15T11:55:15;58.53;;;28.20;;
45206;SDS011;30950;53.086;21.576;2022-11-15T12:00:56;51.33;;;26.08;;
45206;SDS011;30950;53.086;21.576;2022-11-15T12:03:43;53.97;;;25.52;;
45206;SDS011;30950;53.086;21.576;2022-11-15T12:06:27;53.80;;;27.10;;
45206;SDS011;30950;53.086;21.576;2022-11-15T12:08:58;53.70;;;26.05;;
45206;SDS011;30950;53.086;21.576;2022-11-15T12:12:00;52.55;;;28.38;;
45206;SDS011;30950;53.086;21.576;2022-11-15T12:14:38;48.38;;;25.83;;
45206;SDS011;30950;53.086;21.576;2022-11-15T12:17:28;50.00;;;24.65;;
45206;SDS011;30950;53.086;21.576;2022-11-15T12:19:59;44.33;;;23.00;;
45206;SDS011;30950;53.086;21.576;2022-11-15T12:22:41;46.30;;;22.52;;
45206;SDS011;30950;53.086;21.576;2022-11-15T12:25:30;44.33;;;23.10;;
45206;SDS011;30950;53.086;21.576;2022-11-15T12:38:59;46.30;;;23.27;;
45206;SDS011;30950;53.086;21.576;2022-11-15T12:41:36;43.13;;;23.42;;
45206;SDS011;30950;53.086;21.576;2022-11-15T12:44:12;46.78;;;24.38;;
45206;SDS011;30950;53.086;21.576;2022-11-15T12:47:01;49.08;;;22.83;;
45206;SDS011;30950;53.086;21.576;2022-11-15T12:49:49;46.25;;;23.45;;
45206;SDS011;30950;53.086;21.576;2022-11-15T12:52:16;44.08;;;23.45;;
45206;SDS011;30950;53.086;21.576;2022-11-15T12:54:57;44.45;;;22.27;;
45206;SDS011;30950;53.086;21.576;2022-11-15T12:57:27;42.83;;;22.77;;
45206;SDS011;30950;53.086;21.576;2022-11-15T12:59:57;49.05;;;24.88;;
45206;SDS011;30950;53.086;21.576;2022-11-15T13:02:32;38.85;;;21.02;;
45206;SDS011;30950;53.086;21.576;2022-11-15T13:17:56;43.92;;;22.05;;
45206;SDS011;30950;53.086;21.576;2022-11-15T13:20:28;39.00;;;21.40;;
45206;SDS011;30950;53.086;21.576;2022-11-15T13:28:10;42.67;;;20.87;;
45206;SDS011;30950;53.086;21.576;2022-11-15T13:30:48;40.05;;;20.80;;
45206;SDS011;30950;53.086;21.576;2022-11-15T13:35:48;44.50;;;25.05;;
45206;SDS011;30950;53.086;21.576;2022-11-15T13:38:19;41.20;;;20.75;;
45206;SDS011;30950;53.086;21.576;2022-11-15T13:40:56;41.42;;;21.05;;
45206;SDS011;30950;53.086;21.576;2022-11-15T13:48:32;41.95;;;22.15;;
45206;SDS011;30950;53.086;21.576;2022-11-15T13:51:01;47.08;;;25.58;;
45206;SDS011;30950;53.086;21.576;2022-11-15T13:53:32;44.28;;;22.13;;
45206;SDS011;30950;53.086;21.576;2022-11-15T13:56:02;40.55;;;19.83;;
45206;SDS011;30950;53.086;21.576;2022-11-15T13:58:30;34.63;;;20.33;;
45206;SDS011;30950;53.086;21.576;2022-11-15T14:01:02;34.20;;;19.73;;
45206;SDS011;30950;53.086;21.576;2022-11-15T14:03:31;36.92;;;19.48;;
45206;SDS011;30950;53.086;21.576;2022-11-15T14:06:11;34.28;;;20.15;;
45206;SDS011;30950;53.086;21.576;2022-11-15T14:08:57;34.95;;;19.95;;
45206;SDS011;30950;53.086;21.576;2022-11-15T14:11:25;32.53;;;18.13;;
45206;SDS011;30950;53.086;21.576;2022-11-15T14:16:37;34.90;;;17.88;;
45206;SDS011;30950;53.086;21.576;2022-11-15T14:22:07;33.58;;;18.52;;
45206;SDS011;30950;53.086;21.576;2022-11-15T14:24:37;36.28;;;20.20;;
45206;SDS011;30950;53.086;21.576;2022-11-15T14:27:25;35.30;;;19.65;;
45206;SDS011;30950;53.086;21.576;2022-11-15T14:29:54;35.80;;;20.88;;
45206;SDS011;30950;53.086;21.576;2022-11-15T14:32:23;34.95;;;19.70;;
45206;SDS011;30950;53.086;21.576;2022-11-15T14:34:56;32.72;;;17.77;;
45206;SDS011;30950;53.086;21.576;2022-11-15T14:37:29;35.38;;;20.77;;
45206;SDS011;30950;53.086;21.576;2022-11-15T14:40:03;37.45;;;20.42;;
45206;SDS011;30950;53.086;21.576;2022-11-15T14:42:32;33.75;;;18.10;;
45206;SDS011;30950;53.086;21.576;2022-11-15T14:45:00;34.55;;;18.65;;
45206;SDS011;30950;53.086;21.576;2022-11-15T14:47:27;36.63;;;19.25;;
45206;SDS011;30950;53.086;21.576;2022-11-15T14:49:55;31.63;;;17.73;;
45206;SDS011;30950;53.086;21.576;2022-11-15T14:54:58;32.33;;;18.50;;
45206;SDS011;30950;53.086;21.576;2022-11-15T14:57:26;37.60;;;19.38;;
45206;SDS011;30950;53.086;21.576;2022-11-15T14:59:54;36.28;;;19.80;;
45206;SDS011;30950;53.086;21.576;2022-11-15T15:02:23;33.67;;;19.95;;
45206;SDS011;30950;53.086;21.576;2022-11-15T15:04:52;38.05;;;21.10;;
45206;SDS011;30950;53.086;21.576;2022-11-15T15:07:20;40.70;;;21.35;;
45206;SDS011;30950;53.086;21.576;2022-11-15T15:09:48;37.17;;;21.88;;
45206;SDS011;30950;53.086;21.576;2022-11-15T15:14:45;41.47;;;24.45;;
45206;SDS011;30950;53.086;21.576;2022-11-15T15:17:13;41.17;;;23.02;;
45206;SDS011;30950;53.086;21.576;2022-11-15T15:19:41;49.47;;;26.23;;
45206;SDS011;30950;53.086;21.576;2022-11-15T15:22:11;41.60;;;23.10;;
45206;SDS011;30950;53.086;21.576;2022-11-15T15:24:42;47.88;;;26.50;;
45206;SDS011;30950;53.086;21.576;2022-11-15T15:27:11;43.67;;;25.90;;
45206;SDS011;30950;53.086;21.576;2022-11-15T15:29:38;46.80;;;24.75;;
45206;SDS011;30950;53.086;21.576;2022-11-15T15:32:08;49.88;;;26.55;;
45206;SDS011;30950;53.086;21.576;2022-11-15T15:34:38;44.95;;;24.77;;
45206;SDS011;30950;53.086;21.576;2022-11-15T15:39:35;39.10;;;22.00;;
45206;SDS011;30950;53.086;21.576;2022-11-15T15:42:03;43.58;;;22.77;;
45206;SDS011;30950;53.086;21.576;2022-11-15T15:44:30;46.60;;;24.73;;
45206;SDS011;30950;53.086;21.576;2022-11-15T15:46:58;38.65;;;20.80;;
45206;SDS011;30950;53.086;21.576;2022-11-15T15:49:25;37.70;;;21.13;;
45206;SDS011;30950;53.086;21.576;2022-11-15T15:51:53;40.20;;;20.10;;
45206;SDS011;30950;53.086;21.576;2022-11-15T15:54:20;37.25;;;19.90;;
45206;SDS011;30950;53.086;21.576;2022-11-15T15:56:48;43.17;;;25.60;;
45206;SDS011;30950;53.086;21.576;2022-11-15T15:59:21;46.83;;;26.58;;
45206;SDS011;30950;53.086;21.576;2022-11-15T16:01:49;42.65;;;23.48;;
45206;SDS011;30950;53.086;21.576;2022-11-15T16:04:16;40.92;;;24.23;;
45206;SDS011;30950;53.086;21.576;2022-11-15T16:06:44;42.72;;;24.80;;
45206;SDS011;30950;53.086;21.576;2022-11-15T16:09:14;40.20;;;21.83;;
45206;SDS011;30950;53.086;21.576;2022-11-15T16:11:45;41.15;;;22.27;;
45206;SDS011;30950;53.086;21.576;2022-11-15T16:14:12;40.72;;;21.58;;
45206;SDS011;30950;53.086;21.576;2022-11-15T16:16:40;38.97;;;20.92;;
45206;SDS011;30950;53.086;21.576;2022-11-15T16:19:08;40.67;;;21.13;;
45206;SDS011;30950;53.086;21.576;2022-11-15T16:21:37;39.15;;;22.38;;
45206;SDS011;30950;53.086;21.576;2022-11-15T16:24:04;40.58;;;22.33;;
45206;SDS011;30950;53.086;21.576;2022-11-15T16:26:32;37.92;;;22.17;;
45206;SDS011;30950;53.086;21.576;2022-11-15T16:29:01;46.17;;;23.88;;
45206;SDS011;30950;53.086;21.576;2022-11-15T16:31:29;50.78;;;26.35;;
45206;SDS011;30950;53.086;21.576;2022-11-15T16:33:56;38.47;;;22.38;;
45206;SDS011;30950;53.086;21.576;2022-11-15T16:36:24;36.88;;;20.40;;
45206;SDS011;30950;53.086;21.576;2022-11-15T16:38:56;39.28;;;22.90;;
45206;SDS011;30950;53.086;21.576;2022-11-15T16:41:25;34.95;;;20.77;;
45206;SDS011;30950;53.086;21.576;2022-11-15T16:43:52;36.30;;;20.83;;
45206;SDS011;30950;53.086;21.576;2022-11-15T16:46:24;33.95;;;18.77;;
45206;SDS011;30950;53.086;21.576;2022-11-15T16:48:52;36.95;;;19.27;;
45206;SDS011;30950;53.086;21.576;2022-11-15T16:51:21;33.35;;;20.67;;
45206;SDS011;30950;53.086;21.576;2022-11-15T16:53:49;37.58;;;21.65;;
45206;SDS011;30950;53.086;21.576;2022-11-15T16:58:43;36.40;;;21.00;;
45206;SDS011;30950;53.086;21.576;2022-11-15T17:01:18;39.08;;;22.70;;
45206;SDS011;30950;53.086;21.576;2022-11-15T17:03:48;36.65;;;19.33;;
45206;SDS011;30950;53.086;21.576;2022-11-15T17:06:16;37.85;;;21.25;;
45206;SDS011;30950;53.086;21.576;2022-11-15T17:08:44;37.90;;;21.85;;
45206;SDS011;30950;53.086;21.576;2022-11-15T17:11:19;40.00;;;22.10;;
45206;SDS011;30950;53.086;21.576;2022-11-15T17:13:48;31.50;;;18.17;;
45206;SDS011;30950;53.086;21.576;2022-11-15T17:16:16;35.60;;;17.30;;
45206;SDS011;30950;53.086;21.576;2022-11-15T17:18:44;40.30;;;19.05;;
45206;SDS011;30950;53.086;21.576;2022-11-15T17:21:17;40.13;;;21.27;;
45206;SDS011;30950;53.086;21.576;2022-11-15T17:23:46;38.05;;;21.02;;
45206;SDS011;30950;53.086;21.576;2022-11-15T17:26:14;37.42;;;18.80;;
45206;SDS011;30950;53.086;21.576;2022-11-15T17:29:02;33.38;;;17.63;;
45206;SDS011;30950;53.086;21.576;2022-11-15T17:31:34;37.80;;;21.00;;
45206;SDS011;30950;53.086;21.576;2022-11-15T17:34:02;39.88;;;21.27;;
45206;SDS011;30950;53.086;21.576;2022-11-15T17:36:31;43.72;;;23.75;;
45206;SDS011;30950;53.086;21.576;2022-11-15T17:38:59;53.13;;;33.53;;
45206;SDS011;30950;53.086;21.576;2022-11-15T17:41:26;47.35;;;27.80;;
45206;SDS011;30950;53.086;21.576;2022-11-15T17:43:55;43.55;;;23.42;;
45206;SDS011;30950;53.086;21.576;2022-11-15T17:46:24;45.13;;;25.58;;
45206;SDS011;30950;53.086;21.576;2022-11-15T17:48:53;72.65;;;43.80;;
45206;SDS011;30950;53.086;21.576;2022-11-15T17:51:21;40.92;;;23.60;;
45206;SDS011;30950;53.086;21.576;2022-11-15T17:53:49;46.53;;;23.40;;
45206;SDS011;30950;53.086;21.576;2022-11-15T17:56:18;43.15;;;22.75;;
45206;SDS011;30950;53.086;21.576;2022-11-15T17:58:47;45.83;;;24.58;;
45206;SDS011;30950;53.086;21.576;2022-11-15T18:01:22;48.35;;;24.75;;
45206;SDS011;30950;53.086;21.576;2022-11-15T18:03:51;52.72;;;29.20;;
45206;SDS011;30950;53.086;21.576;2022-11-15T18:06:22;47.85;;;24.05;;
45206;SDS011;30950;53.086;21.576;2022-11-15T18:08:50;48.42;;;25.58;;
45206;SDS011;30950;53.086;21.576;2022-11-15T18:11:20;45.97;;;24.13;;